You are listening to:
SABE Gnd/Twr/App - Buenos Aires, Argentina

SABE 171330Z 07011KT 1000 R13/1200 OVC008 16/16 Q1014 NOSIG

If stream does not start automatically press the play button